Time;durP1;ratioP1;P1;durP2;ratioP2;P2;SDS_P1;SDS_P2;PMS_P1;PMS_P2;Temp;Humidity;BMP_temperature;BMP_pressure;BME280_temperature;BME280_humidity;BME280_pressure;Samples;Min_cycle;Max_cycle;Signal;HPM_P1;HPM_P2
2022/01/29 00:02:23;;;;;;;65.00;27.17;;;;;;;;;;5055484;28;20080;-83
2022/01/29 00:04:49;;;;;;;56.53;24.10;;;;;;;;;;5074034;28;20029;-74
2022/01/29 00:07:16;;;;;;;58.53;23.17;;;;;;;;;;5058222;28;20037;-75
2022/01/29 00:09:44;;;;;;;55.00;23.55;;;;;;;;;;5068860;28;20062;-75
2022/01/29 00:12:11;;;;;;;52.95;21.50;;;;;;;;;;5061717;28;20037;-75
2022/01/29 00:14:38;;;;;;;48.83;20.33;;;;;;;;;;5061453;28;20494;-74
2022/01/29 00:17:04;;;;;;;32.65;14.85;;;;;;;;;;5074811;28;20063;-74
2022/01/29 00:19:31;;;;;;;34.25;15.38;;;;;;;;;;5064015;28;20040;-74
2022/01/29 00:21:58;;;;;;;33.80;14.77;;;;;;;;;;5067937;28;20039;-74
2022/01/29 00:24:25;;;;;;;34.67;14.68;;;;;;;;;;5059768;28;20094;-75
2022/01/29 00:26:51;;;;;;;29.35;13.23;;;;;;;;;;5073514;28;20094;-75
2022/01/29 00:29:21;;;;;;;35.05;13.63;;;;;;;;;;4725123;28;9999709;-74
2022/01/29 00:31:47;;;;;;;36.85;13.38;;;;;;;;;;5089744;28;20028;-74
2022/01/29 00:34:14;;;;;;;34.22;14.30;;;;;;;;;;5066919;28;20064;-74
2022/01/29 00:36:40;;;;;;;28.55;12.82;;;;;;;;;;5063671;28;20090;-75
2022/01/29 00:39:07;;;;;;;32.83;13.05;;;;;;;;;;5078786;28;20123;-75
2022/01/29 00:41:33;;;;;;;35.75;15.25;;;;;;;;;;5069422;28;20064;-75
2022/01/29 00:44:00;;;;;;;33.40;14.68;;;;;;;;;;5058602;28;20447;-75
2022/01/29 00:46:26;;;;;;;39.33;15.88;;;;;;;;;;5074027;28;20123;-75
2022/01/29 00:48:54;;;;;;;36.28;15.05;;;;;;;;;;5088590;28;20032;-75
2022/01/29 00:51:21;;;;;;;35.03;15.30;;;;;;;;;;5056108;28;20086;-75
2022/01/29 00:53:47;;;;;;;38.47;14.90;;;;;;;;;;5068670;28;20032;-75
2022/01/29 00:56:13;;;;;;;37.47;15.63;;;;;;;;;;5081707;28;20111;-75
2022/01/29 00:58:41;;;;;;;36.78;14.98;;;;;;;;;;5056038;28;20055;-75
2022/01/29 01:01:07;;;;;;;33.92;13.55;;;;;;;;;;5063369;28;20051;-74
2022/01/29 01:03:34;;;;;;;32.00;13.57;;;;;;;;;;5050554;28;20045;-74
2022/01/29 01:06:00;;;;;;;27.52;13.10;;;;;;;;;;5051530;28;20076;-74
2022/01/29 01:08:26;;;;;;;32.58;14.55;;;;;;;;;;5054975;28;20041;-74
2022/01/29 01:10:53;;;;;;;34.95;13.80;;;;;;;;;;5073007;28;20040;-74
2022/01/29 01:13:19;;;;;;;34.85;15.02;;;;;;;;;;5054246;28;20037;-74
2022/01/29 01:15:46;;;;;;;37.60;14.90;;;;;;;;;;5051469;28;20037;-74
2022/01/29 01:18:12;;;;;;;34.20;14.30;;;;;;;;;;5052702;28;20029;-74
2022/01/29 01:20:38;;;;;;;31.85;12.85;;;;;;;;;;5060471;28;20029;-74
2022/01/29 01:23:05;;;;;;;31.48;13.48;;;;;;;;;;5052789;28;20029;-74
2022/01/29 01:25:31;;;;;;;29.30;13.35;;;;;;;;;;5051356;28;20068;-74
2022/01/29 01:27:58;;;;;;;31.48;12.68;;;;;;;;;;5051940;28;20057;-74
2022/01/29 01:30:24;;;;;;;31.77;13.75;;;;;;;;;;5058671;28;20058;-74
2022/01/29 01:32:51;;;;;;;29.95;14.60;;;;;;;;;;5050669;28;20488;-74
2022/01/29 01:35:29;;;;;;;39.25;16.17;;;;;;;;;;5053648;28;20036;-74
2022/01/29 01:38:01;;;;;;;44.35;15.93;;;;;;;;;;5073466;28;20520;-74
2022/01/29 01:40:28;;;;;;;38.38;16.48;;;;;;;;;;5050844;28;20119;-74
2022/01/29 01:42:59;;;;;;;31.60;14.85;;;;;;;;;;5066329;28;20033;-74
2022/01/29 01:45:27;;;;;;;42.50;16.42;;;;;;;;;;5067705;28;20484;-75
2022/01/29 01:47:56;;;;;;;39.05;16.48;;;;;;;;;;5051314;28;20539;-74
2022/01/29 01:50:23;;;;;;;38.97;17.05;;;;;;;;;;4699584;28;10000190;-74
2022/01/29 01:52:50;;;;;;;41.58;16.30;;;;;;;;;;5050449;28;20080;-75
2022/01/29 01:55:17;;;;;;;33.60;15.82;;;;;;;;;;5049109;28;20068;-75
2022/01/29 01:57:44;;;;;;;34.50;15.23;;;;;;;;;;5048278;28;20044;-75
2022/01/29 02:00:12;;;;;;;40.28;15.02;;;;;;;;;;5056329;28;20083;-74
2022/01/29 02:02:39;;;;;;;35.90;15.77;;;;;;;;;;5067062;28;20048;-74
2022/01/29 02:05:06;;;;;;;42.90;16.42;;;;;;;;;;5049880;28;20072;-74
2022/01/29 02:07:33;;;;;;;35.15;16.38;;;;;;;;;;5055627;28;20048;-74
2022/01/29 02:09:59;;;;;;;41.30;16.58;;;;;;;;;;5054745;28;20032;-73
2022/01/29 02:12:29;;;;;;;38.38;17.77;;;;;;;;;;5049851;28;20045;-73
2022/01/29 02:15:01;;;;;;;36.13;16.80;;;;;;;;;;5048244;28;20561;-73
2022/01/29 02:17:27;;;;;;;43.05;17.63;;;;;;;;;;5048268;28;20037;-74
2022/01/29 02:19:54;;;;;;;40.63;18.38;;;;;;;;;;5049366;28;20086;-73
2022/01/29 02:22:20;;;;;;;36.65;15.90;;;;;;;;;;5052302;28;20113;-74
2022/01/29 02:24:46;;;;;;;36.78;16.23;;;;;;;;;;5047071;28;20037;-74
2022/01/29 02:27:13;;;;;;;38.42;16.27;;;;;;;;;;5051403;28;20052;-75
2022/01/29 02:29:39;;;;;;;39.97;17.05;;;;;;;;;;5051120;28;20112;-75
2022/01/29 02:32:09;;;;;;;42.80;18.30;;;;;;;;;;5048946;28;20622;-75
2022/01/29 02:34:36;;;;;;;44.17;17.95;;;;;;;;;;5051222;28;20159;-75
2022/01/29 02:37:04;;;;;;;46.13;18.90;;;;;;;;;;5055046;28;20120;-75
2022/01/29 02:39:31;;;;;;;43.58;17.65;;;;;;;;;;5048010;28;20466;-74
2022/01/29 02:41:59;;;;;;;47.22;17.75;;;;;;;;;;5063831;28;20545;-75
2022/01/29 02:44:26;;;;;;;45.28;18.08;;;;;;;;;;5063535;28;20041;-75
2022/01/29 02:46:54;;;;;;;41.55;18.25;;;;;;;;;;5046788;28;20033;-75
2022/01/29 02:49:22;;;;;;;44.28;17.92;;;;;;;;;;5062956;28;20045;-74
2022/01/29 02:51:57;;;;;;;43.83;17.23;;;;;;;;;;5063349;28;20037;-75
2022/01/29 02:54:26;;;;;;;43.90;17.10;;;;;;;;;;5060158;28;20942;-75
2022/01/29 02:56:53;;;;;;;40.00;15.85;;;;;;;;;;5067732;28;20115;-75
2022/01/29 02:59:19;;;;;;;41.53;16.85;;;;;;;;;;5051674;28;20578;-75
2022/01/29 03:01:46;;;;;;;35.38;15.15;;;;;;;;;;5057997;28;20090;-75
2022/01/29 03:04:12;;;;;;;46.70;20.13;;;;;;;;;;5057842;28;20045;-75
2022/01/29 03:06:39;;;;;;;51.28;20.25;;;;;;;;;;5047321;28;20040;-75
2022/01/29 03:09:06;;;;;;;45.17;17.42;;;;;;;;;;5050051;28;20037;-75
2022/01/29 03:11:33;;;;;;;49.10;19.00;;;;;;;;;;5076493;28;20048;-74
2022/01/29 03:13:59;;;;;;;43.10;17.05;;;;;;;;;;5053490;28;20106;-75
2022/01/29 03:16:29;;;;;;;41.10;18.33;;;;;;;;;;5056821;28;20052;-75
2022/01/29 03:18:55;;;;;;;46.95;19.45;;;;;;;;;;5051861;28;20399;-75
2022/01/29 03:21:22;;;;;;;44.53;17.75;;;;;;;;;;5063302;28;20037;-75
2022/01/29 03:23:48;;;;;;;41.33;18.05;;;;;;;;;;5049263;28;20166;-75
2022/01/29 03:26:15;;;;;;;44.90;17.67;;;;;;;;;;5052375;28;20037;-75
2022/01/29 03:28:41;;;;;;;43.97;18.60;;;;;;;;;;5068353;28;20032;-75
2022/01/29 03:31:08;;;;;;;41.05;16.83;;;;;;;;;;5067894;28;20032;-75
2022/01/29 03:33:34;;;;;;;42.75;16.50;;;;;;;;;;5051678;28;20442;-75
2022/01/29 03:36:01;;;;;;;38.00;16.02;;;;;;;;;;5051118;28;20392;-75
2022/01/29 03:38:27;;;;;;;35.20;15.95;;;;;;;;;;5049901;28;21228;-75
2022/01/29 03:40:57;;;;;;;42.70;17.60;;;;;;;;;;5059086;28;20094;-75
2022/01/29 03:43:30;;;;;;;45.35;19.67;;;;;;;;;;5055510;28;20032;-76
2022/01/29 03:45:58;;;;;;;43.38;19.58;;;;;;;;;;5053824;28;20414;-75
2022/01/29 03:48:24;;;;;;;42.58;17.85;;;;;;;;;;5052816;28;20495;-76
2022/01/29 03:50:51;;;;;;;54.15;20.90;;;;;;;;;;5068913;28;20033;-76
2022/01/29 03:53:17;;;;;;;53.20;21.77;;;;;;;;;;5055258;28;20068;-77
2022/01/29 03:55:44;;;;;;;48.00;19.15;;;;;;;;;;5063855;28;20045;-76
2022/01/29 03:58:11;;;;;;;52.22;19.95;;;;;;;;;;5053712;28;20029;-77
2022/01/29 04:00:37;;;;;;;55.25;21.45;;;;;;;;;;5054498;28;20116;-77
2022/01/29 04:03:04;;;;;;;62.75;23.33;;;;;;;;;;5071644;28;20040;-77
2022/01/29 04:05:31;;;;;;;60.20;21.65;;;;;;;;;;5056913;28;20041;-77
2022/01/29 04:07:57;;;;;;;62.20;25.08;;;;;;;;;;5077650;28;20071;-77
2022/01/29 04:10:27;;;;;;;65.38;30.30;;;;;;;;;;5057190;28;20037;-77
2022/01/29 04:12:54;;;;;;;80.57;33.00;;;;;;;;;;5068982;28;20041;-76
2022/01/29 04:15:20;;;;;;;101.05;39.97;;;;;;;;;;5051629;28;20396;-77
2022/01/29 04:17:50;;;;;;;105.78;39.20;;;;;;;;;;5053352;28;20057;-76
2022/01/29 04:20:18;;;;;;;97.15;40.80;;;;;;;;;;5067860;28;20422;-77
2022/01/29 04:22:45;;;;;;;92.18;40.60;;;;;;;;;;5048131;28;20048;-77
2022/01/29 04:25:13;;;;;;;94.65;37.85;;;;;;;;;;5054036;28;20037;-77
2022/01/29 04:27:46;;;;;;;94.20;36.80;;;;;;;;;;5063467;28;20049;-77
2022/01/29 04:30:31;;;;;;;81.15;31.75;;;;;;;;;;5072283;28;20090;-77
2022/01/29 04:33:14;;;;;;;60.55;25.27;;;;;;;;;;5069111;28;20048;-76
2022/01/29 04:35:44;;;;;;;55.25;25.40;;;;;;;;;;5058777;28;20467;-77
2022/01/29 04:38:10;;;;;;;55.80;24.52;;;;;;;;;;5069285;28;20123;-76
2022/01/29 04:40:37;;;;;;;66.18;28.05;;;;;;;;;;5055178;28;20505;-77
2022/01/29 04:43:04;;;;;;;77.43;32.38;;;;;;;;;;5052778;28;20032;-77
2022/01/29 04:45:31;;;;;;;97.22;40.20;;;;;;;;;;5052432;28;20029;-77
2022/01/29 04:47:58;;;;;;;90.70;41.08;;;;;;;;;;5056735;28;20765;-76
2022/01/29 04:50:25;;;;;;;93.22;43.05;;;;;;;;;;5058141;28;20120;-77
2022/01/29 04:52:51;;;;;;;123.43;53.55;;;;;;;;;;5073047;28;20039;-76
2022/01/29 04:55:21;;;;;;;135.98;62.53;;;;;;;;;;5070097;28;20041;-77
2022/01/29 04:57:47;;;;;;;133.95;58.88;;;;;;;;;;5054162;28;20041;-76
2022/01/29 05:02:53;;;;;;;147.45;63.67;;;;;;;;;;5067002;28;20480;-76
2022/01/29 05:05:20;;;;;;;148.90;64.70;;;;;;;;;;5064707;28;20426;-76
2022/01/29 05:07:47;;;;;;;165.90;68.72;;;;;;;;;;5072549;28;20033;-77
2022/01/29 05:10:14;;;;;;;142.38;66.40;;;;;;;;;;5072878;28;20055;-77
2022/01/29 05:12:59;;;;;;;140.75;61.38;;;;;;;;;;5055307;28;20037;-77
2022/01/29 05:29:18;;;;;;;141.55;62.70;;;;;;;;;;5077935;28;20028;-83
2022/01/29 05:31:45;;;;;;;127.15;57.85;;;;;;;;;;5058340;28;20037;-84
2022/01/29 05:34:11;;;;;;;121.97;54.60;;;;;;;;;;5071273;28;20381;-84
2022/01/29 05:36:42;;;;;;;129.63;56.03;;;;;;;;;;5071845;28;20437;-84
2022/01/29 05:39:08;;;;;;;121.38;53.10;;;;;;;;;;5056324;28;20537;-83
2022/01/29 05:41:48;;;;;;;109.57;50.83;;;;;;;;;;5043091;28;20067;-83
2022/01/29 05:44:14;;;;;;;130.52;55.97;;;;;;;;;;5076118;28;20093;-83
2022/01/29 05:46:41;;;;;;;126.40;55.58;;;;;;;;;;5070670;28;20535;-83
2022/01/29 05:49:08;;;;;;;132.05;58.85;;;;;;;;;;5077042;28;20024;-83
2022/01/29 05:51:34;;;;;;;123.72;58.08;;;;;;;;;;5074520;28;20039;-83
2022/01/29 05:54:01;;;;;;;155.73;65.15;;;;;;;;;;5057573;28;20040;-83
2022/01/29 05:56:28;;;;;;;123.22;54.03;;;;;;;;;;5058021;28;20043;-83
2022/01/29 05:58:57;;;;;;;122.05;51.08;;;;;;;;;;5070611;28;20131;-83
2022/01/29 06:01:23;;;;;;;109.82;50.03;;;;;;;;;;5060976;28;20040;-83
2022/01/29 06:03:50;;;;;;;115.55;52.67;;;;;;;;;;5071832;28;20395;-83
2022/01/29 06:06:17;;;;;;;119.68;54.65;;;;;;;;;;5055596;28;20032;-84
2022/01/29 06:08:43;;;;;;;125.95;56.38;;;;;;;;;;5065196;28;20039;-84
2022/01/29 06:11:28;;;;;;;137.70;60.47;;;;;;;;;;5091612;28;20043;-84
2022/01/29 06:13:54;;;;;;;136.55;59.10;;;;;;;;;;5080294;28;20036;-85
2022/01/29 06:16:22;;;;;;;124.97;54.63;;;;;;;;;;5057038;28;20036;-84
2022/01/29 06:18:48;;;;;;;116.80;54.03;;;;;;;;;;5055121;28;20048;-85
2022/01/29 06:21:16;;;;;;;116.45;51.80;;;;;;;;;;5058789;28;20127;-84
2022/01/29 06:23:43;;;;;;;113.68;50.92;;;;;;;;;;5071028;28;20535;-84
2022/01/29 06:26:33;;;;;;;120.88;52.95;;;;;;;;;;5072362;28;20127;-82
2022/01/29 06:29:00;;;;;;;127.80;55.38;;;;;;;;;;5053807;28;20380;-82
2022/01/29 06:31:27;;;;;;;116.38;53.55;;;;;;;;;;5060816;28;20033;-83
2022/01/29 06:33:53;;;;;;;136.43;59.47;;;;;;;;;;5057439;28;20037;-83
2022/01/29 06:36:21;;;;;;;145.18;67.22;;;;;;;;;;5063317;28;20438;-83
2022/01/29 06:38:48;;;;;;;148.23;70.32;;;;;;;;;;5054345;28;20032;-83
2022/01/29 06:41:21;;;;;;;163.38;72.35;;;;;;;;;;5065809;28;20036;-82
2022/01/29 06:43:48;;;;;;;97.53;42.45;;;;;;;;;;5056622;28;20461;-85
2022/01/29 06:46:18;;;;;;;70.00;30.98;;;;;;;;;;5075083;28;20071;-84
2022/01/29 06:48:45;;;;;;;60.25;27.27;;;;;;;;;;5060527;28;20028;-84
2022/01/29 06:51:12;;;;;;;49.15;25.38;;;;;;;;;;5071816;28;20033;-84
2022/01/29 06:53:39;;;;;;;61.50;24.40;;;;;;;;;;5056735;28;20032;-83
2022/01/29 06:56:11;;;;;;;59.20;24.83;;;;;;;;;;5064231;28;20044;-83
2022/01/29 06:58:51;;;;;;;73.85;25.48;;;;;;;;;;5072230;28;20122;-84
2022/01/29 07:01:17;;;;;;;54.22;24.05;;;;;;;;;;5058923;28;20048;-83
2022/01/29 07:03:44;;;;;;;65.72;25.42;;;;;;;;;;5044726;28;20041;-84
2022/01/29 07:06:12;;;;;;;61.35;27.23;;;;;;;;;;5053490;28;20040;-84
2022/01/29 07:08:39;;;;;;;58.08;23.67;;;;;;;;;;5069705;28;20507;-84
2022/01/29 07:11:10;;;;;;;54.58;23.50;;;;;;;;;;5052351;28;20553;-84
2022/01/29 07:13:44;;;;;;;45.13;19.98;;;;;;;;;;5057339;28;20506;-84
2022/01/29 07:16:10;;;;;;;45.70;18.35;;;;;;;;;;5055261;28;20036;-84
2022/01/29 07:18:37;;;;;;;37.55;17.00;;;;;;;;;;5071064;28;20036;-83
2022/01/29 07:21:05;;;;;;;39.97;18.50;;;;;;;;;;5070287;28;20036;-84
2022/01/29 07:23:34;;;;;;;44.70;21.48;;;;;;;;;;5069998;28;20037;-84
2022/01/29 07:26:03;;;;;;;43.45;21.92;;;;;;;;;;5034303;28;20080;-84
2022/01/29 07:28:30;;;;;;;43.55;19.40;;;;;;;;;;5045350;28;20040;-83
2022/01/29 07:30:59;;;;;;;46.92;19.85;;;;;;;;;;5054939;28;20021;-83
2022/01/29 07:33:28;;;;;;;44.17;19.77;;;;;;;;;;5053925;28;20172;-84
2022/01/29 07:35:58;;;;;;;43.55;19.65;;;;;;;;;;5069416;28;20025;-84
2022/01/29 07:38:24;;;;;;;45.05;21.27;;;;;;;;;;5053485;28;20043;-83
2022/01/29 07:40:52;;;;;;;54.08;22.45;;;;;;;;;;5052996;28;20118;-84
2022/01/29 07:43:18;;;;;;;42.38;19.88;;;;;;;;;;5057830;28;20036;-84
2022/01/29 07:45:51;;;;;;;39.05;18.83;;;;;;;;;;5059703;28;20102;-84
2022/01/29 07:48:18;;;;;;;35.50;17.40;;;;;;;;;;5066257;28;20132;-84
2022/01/29 07:50:48;;;;;;;37.03;17.27;;;;;;;;;;5053872;28;20021;-84
2022/01/29 07:53:15;;;;;;;36.67;15.73;;;;;;;;;;5070584;28;20029;-84
2022/01/29 07:55:41;;;;;;;35.00;17.17;;;;;;;;;;5070710;28;20037;-84
2022/01/29 07:58:09;;;;;;;30.92;15.52;;;;;;;;;;5069601;28;20033;-83
2022/01/29 08:00:40;;;;;;;31.92;16.10;;;;;;;;;;5069637;28;20037;-84
2022/01/29 08:03:09;;;;;;;28.63;15.13;;;;;;;;;;5050568;28;20057;-84
2022/01/29 08:05:36;;;;;;;25.70;13.45;;;;;;;;;;5050436;28;20048;-84
2022/01/29 08:08:02;;;;;;;29.92;14.63;;;;;;;;;;5053339;28;20036;-84
2022/01/29 08:10:29;;;;;;;28.73;12.57;;;;;;;;;;5042844;28;20034;-83
2022/01/29 08:12:56;;;;;;;26.48;13.48;;;;;;;;;;5036024;28;20037;-83
2022/01/29 08:15:23;;;;;;;27.70;13.07;;;;;;;;;;5058037;28;20041;-83
2022/01/29 08:18:06;;;;;;;28.52;13.15;;;;;;;;;;5047440;28;20033;-84
2022/01/29 08:20:33;;;;;;;26.92;13.77;;;;;;;;;;5030601;28;20121;-83
2022/01/29 08:23:06;;;;;;;30.75;14.65;;;;;;;;;;5054098;28;20045;-84
2022/01/29 08:25:32;;;;;;;32.17;15.73;;;;;;;;;;5049007;28;20076;-83
2022/01/29 08:28:09;;;;;;;32.10;16.23;;;;;;;;;;5046553;28;20038;-84
2022/01/29 08:30:35;;;;;;;31.98;14.98;;;;;;;;;;5035540;28;20043;-84
2022/01/29 08:33:06;;;;;;;27.70;14.48;;;;;;;;;;5060058;28;20557;-84
2022/01/29 08:35:33;;;;;;;31.63;15.88;;;;;;;;;;5034285;28;20029;-83
2022/01/29 08:38:00;;;;;;;30.70;15.80;;;;;;;;;;5033538;28;20036;-84
2022/01/29 08:40:26;;;;;;;36.50;15.63;;;;;;;;;;5049083;28;20099;-83
2022/01/29 08:42:53;;;;;;;34.90;15.70;;;;;;;;;;5058307;28;20044;-83
2022/01/29 08:45:20;;;;;;;30.85;15.02;;;;;;;;;;5029911;28;20050;-82
2022/01/29 08:47:48;;;;;;;37.60;17.08;;;;;;;;;;5029681;28;20065;-83
2022/01/29 08:50:15;;;;;;;32.33;16.17;;;;;;;;;;5029621;28;20493;-83
2022/01/29 08:52:46;;;;;;;37.30;16.67;;;;;;;;;;5051847;28;20036;-83
2022/01/29 08:55:12;;;;;;;31.50;15.40;;;;;;;;;;5047389;28;20052;-83
2022/01/29 08:57:39;;;;;;;34.53;16.42;;;;;;;;;;5033858;28;20029;-82
2022/01/29 09:00:07;;;;;;;33.85;16.27;;;;;;;;;;5049310;28;20051;-83
2022/01/29 09:02:33;;;;;;;32.70;16.83;;;;;;;;;;5048507;28;20064;-83
2022/01/29 09:04:59;;;;;;;30.48;15.55;;;;;;;;;;5055313;28;20043;-83
2022/01/29 09:07:28;;;;;;;31.60;16.33;;;;;;;;;;5073427;28;20064;-82
2022/01/29 09:09:55;;;;;;;32.65;15.50;;;;;;;;;;5057818;28;20043;-83
2022/01/29 09:12:25;;;;;;;36.72;16.50;;;;;;;;;;5071424;28;20475;-83
2022/01/29 09:14:52;;;;;;;38.55;16.52;;;;;;;;;;5071683;28;20549;-83
2022/01/29 09:17:27;;;;;;;38.40;17.58;;;;;;;;;;5062123;28;20048;-81
2022/01/29 09:19:56;;;;;;;36.00;18.73;;;;;;;;;;5082083;28;20131;-81
2022/01/29 09:22:22;;;;;;;40.83;19.30;;;;;;;;;;5064274;28;20040;-80
2022/01/29 09:24:51;;;;;;;39.63;18.73;;;;;;;;;;5055810;28;20040;-81
2022/01/29 09:27:17;;;;;;;48.22;21.05;;;;;;;;;;5071679;28;20659;-82
2022/01/29 09:29:46;;;;;;;48.00;21.10;;;;;;;;;;5056120;28;20391;-81
2022/01/29 09:32:12;;;;;;;47.17;22.83;;;;;;;;;;5055069;28;20036;-81
2022/01/29 09:34:38;;;;;;;53.53;24.05;;;;;;;;;;5054738;28;20043;-82
2022/01/29 09:37:05;;;;;;;49.70;23.27;;;;;;;;;;5071171;28;20047;-82
2022/01/29 09:39:43;;;;;;;48.85;23.58;;;;;;;;;;5072931;28;20547;-82
2022/01/29 09:42:11;;;;;;;49.95;23.92;;;;;;;;;;5075727;28;20810;-82
2022/01/29 09:44:37;;;;;;;54.90;24.80;;;;;;;;;;5080934;28;20033;-82
2022/01/29 09:47:05;;;;;;;49.33;24.63;;;;;;;;;;5061675;28;20443;-82
2022/01/29 09:49:33;;;;;;;57.10;25.90;;;;;;;;;;5058163;28;20037;-81
2022/01/29 09:52:18;;;;;;;63.08;28.10;;;;;;;;;;5058474;28;20048;-82
2022/01/29 09:54:46;;;;;;;57.63;25.55;;;;;;;;;;5058368;28;20075;-82
2022/01/29 09:57:25;;;;;;;52.55;25.70;;;;;;;;;;5057686;28;20760;-82
2022/01/29 09:59:51;;;;;;;60.70;26.88;;;;;;;;;;5061720;28;20075;-82
2022/01/29 10:02:19;;;;;;;65.28;27.92;;;;;;;;;;5075584;28;20036;-82
2022/01/29 10:04:49;;;;;;;61.75;28.52;;;;;;;;;;5072753;28;20036;-82
2022/01/29 10:07:27;;;;;;;61.38;30.23;;;;;;;;;;5055340;28;20115;-82
2022/01/29 10:09:54;;;;;;;69.32;31.40;;;;;;;;;;5073234;28;20364;-82
2022/01/29 10:12:40;;;;;;;63.20;31.02;;;;;;;;;;5060810;28;20051;-82
2022/01/29 10:15:08;;;;;;;68.28;32.25;;;;;;;;;;5054190;28;20048;-82
2022/01/29 10:17:50;;;;;;;75.13;34.28;;;;;;;;;;5077176;28;20040;-82
2022/01/29 10:20:26;;;;;;;75.57;34.10;;;;;;;;;;5066952;28;20036;-82
2022/01/29 10:22:55;;;;;;;78.50;35.17;;;;;;;;;;5071099;28;20028;-82
2022/01/29 10:25:26;;;;;;;80.55;38.28;;;;;;;;;;5052922;28;20036;-81
2022/01/29 10:28:07;;;;;;;87.20;38.42;;;;;;;;;;5067452;28;20736;-82
2022/01/29 10:30:35;;;;;;;80.03;37.20;;;;;;;;;;5062908;28;20542;-81
2022/01/29 10:33:20;;;;;;;88.05;40.38;;;;;;;;;;5062044;28;20082;-82
2022/01/29 10:35:48;;;;;;;95.78;42.30;;;;;;;;;;5055926;28;20036;-81
2022/01/29 10:38:16;;;;;;;95.15;43.70;;;;;;;;;;5060403;28;20094;-82
2022/01/29 10:40:43;;;;;;;101.03;46.72;;;;;;;;;;5053932;28;20054;-81
2022/01/29 10:43:10;;;;;;;99.78;46.92;;;;;;;;;;5073164;28;20063;-82
2022/01/29 10:45:44;;;;;;;104.90;48.20;;;;;;;;;;5054089;28;20068;-82
2022/01/29 10:48:11;;;;;;;97.70;46.35;;;;;;;;;;5059536;28;20839;-82
2022/01/29 10:50:39;;;;;;;105.57;48.50;;;;;;;;;;5074319;28;20032;-82
2022/01/29 10:53:24;;;;;;;106.82;50.03;;;;;;;;;;5070473;28;20040;-82
2022/01/29 10:56:00;;;;;;;109.65;49.85;;;;;;;;;;5063874;28;20089;-82
2022/01/29 10:58:27;;;;;;;107.47;50.25;;;;;;;;;;5070635;28;20043;-82
2022/01/29 11:01:13;;;;;;;115.57;54.10;;;;;;;;;;5070814;28;20036;-82
2022/01/29 11:03:40;;;;;;;129.85;54.83;;;;;;;;;;5053326;28;20525;-82
2022/01/29 11:06:09;;;;;;;111.47;51.85;;;;;;;;;;5074459;28;20044;-82
2022/01/29 11:08:47;;;;;;;123.00;54.13;;;;;;;;;;5073715;28;20399;-82
2022/01/29 11:11:17;;;;;;;119.20;54.60;;;;;;;;;;5061167;28;20115;-82
2022/01/29 11:13:57;;;;;;;129.15;58.40;;;;;;;;;;5065749;28;20035;-82
2022/01/29 11:16:23;;;;;;;132.15;59.90;;;;;;;;;;5067492;28;20033;-82
2022/01/29 11:18:52;;;;;;;125.03;56.72;;;;;;;;;;5070998;28;20103;-81
2022/01/29 11:21:18;;;;;;;138.98;61.22;;;;;;;;;;5071400;28;20530;-81
2022/01/29 11:23:45;;;;;;;131.40;59.47;;;;;;;;;;5057774;28;20098;-81
2022/01/29 11:26:11;;;;;;;136.88;61.13;;;;;;;;;;5057992;28;20032;-81
2022/01/29 11:28:40;;;;;;;154.50;65.28;;;;;;;;;;5091978;28;20142;-81
2022/01/29 11:31:15;;;;;;;138.95;63.60;;;;;;;;;;5071540;28;20138;-81
2022/01/29 11:36:49;;;;;;;140.60;64.80;;;;;;;;;;5070738;28;20386;-80
2022/01/29 11:39:30;;;;;;;134.82;63.67;;;;;;;;;;5064637;28;20427;-81
2022/01/29 11:42:12;;;;;;;140.23;64.40;;;;;;;;;;5058324;28;20550;-81
2022/01/29 11:44:39;;;;;;;151.00;68.28;;;;;;;;;;5057783;28;20037;-81
2022/01/29 11:47:27;;;;;;;156.02;70.80;;;;;;;;;;5057613;28;20818;-81
2022/01/29 11:50:19;;;;;;;152.60;70.78;;;;;;;;;;5064203;28;20035;-80
2022/01/29 11:52:59;;;;;;;149.55;69.57;;;;;;;;;;5072552;28;20466;-81
2022/01/29 11:58:27;;;;;;;141.50;65.72;;;;;;;;;;5075246;28;20514;-82
2022/01/29 12:00:55;;;;;;;147.32;65.63;;;;;;;;;;5073222;28;20115;-82
2022/01/29 12:03:36;;;;;;;140.23;63.67;;;;;;;;;;5068689;28;20057;-82
2022/01/29 12:08:55;;;;;;;135.90;60.50;;;;;;;;;;5093210;28;20048;-81
2022/01/29 12:11:27;;;;;;;134.82;60.15;;;;;;;;;;5076679;28;20032;-81
2022/01/29 12:14:12;;;;;;;140.18;63.17;;;;;;;;;;5095413;28;20784;-81
2022/01/29 12:16:49;;;;;;;129.35;59.90;;;;;;;;;;5077348;28;20114;-80
2022/01/29 12:22:27;;;;;;;122.80;53.90;;;;;;;;;;5029321;28;20033;-81
2022/01/29 12:24:59;;;;;;;122.13;52.90;;;;;;;;;;5034833;28;20052;-81
2022/01/29 12:27:39;;;;;;;100.03;46.10;;;;;;;;;;5064837;28;20043;-81
2022/01/29 12:30:06;;;;;;;117.35;51.20;;;;;;;;;;5056369;28;20068;-81
2022/01/29 12:33:08;;;;;;;113.43;52.13;;;;;;;;;;5058517;28;20029;-81
2022/01/29 12:35:36;;;;;;;112.20;47.10;;;;;;;;;;5056982;28;20136;-81
2022/01/29 12:38:04;;;;;;;100.70;45.67;;;;;;;;;;5072169;28;20477;-81
2022/01/29 12:40:37;;;;;;;101.30;44.65;;;;;;;;;;5076422;28;20461;-80
2022/01/29 12:43:11;;;;;;;103.15;46.53;;;;;;;;;;5071116;28;20048;-81
2022/01/29 12:45:38;;;;;;;108.72;46.85;;;;;;;;;;5052777;28;20045;-81
2022/01/29 12:48:09;;;;;;;108.93;49.95;;;;;;;;;;5052977;28;20025;-80
2022/01/29 12:50:35;;;;;;;111.70;48.83;;;;;;;;;;5054008;28;20037;-81
2022/01/29 12:53:06;;;;;;;118.38;50.28;;;;;;;;;;5052968;28;20033;-81
2022/01/29 12:55:34;;;;;;;118.57;50.03;;;;;;;;;;5052689;28;20040;-80
2022/01/29 12:58:00;;;;;;;98.95;45.60;;;;;;;;;;5052334;28;20037;-81
2022/01/29 13:00:26;;;;;;;101.05;44.60;;;;;;;;;;5053351;28;20041;-81
2022/01/29 13:02:55;;;;;;;100.75;45.85;;;;;;;;;;5051735;28;20060;-81
2022/01/29 13:05:21;;;;;;;94.03;43.95;;;;;;;;;;5052433;28;20041;-81
2022/01/29 13:07:49;;;;;;;98.72;47.25;;;;;;;;;;5052117;28;20033;-80
2022/01/29 13:10:15;;;;;;;97.93;45.55;;;;;;;;;;5052007;28;20037;-80
2022/01/29 13:12:46;;;;;;;113.07;48.65;;;;;;;;;;5052119;28;20029;-80
2022/01/29 13:15:14;;;;;;;105.43;46.70;;;;;;;;;;5066209;28;20029;-81
2022/01/29 13:17:43;;;;;;;124.13;55.08;;;;;;;;;;5063126;28;20483;-81
2022/01/29 13:20:10;;;;;;;131.27;60.33;;;;;;;;;;5072235;28;20044;-81
2022/01/29 13:22:43;;;;;;;121.68;55.38;;;;;;;;;;5072939;28;20040;-81
2022/01/29 13:25:11;;;;;;;116.40;53.95;;;;;;;;;;5072236;28;20425;-81
2022/01/29 13:27:42;;;;;;;116.78;52.83;;;;;;;;;;5061941;28;20479;-82
2022/01/29 13:30:21;;;;;;;112.90;51.15;;;;;;;;;;5072334;28;20031;-81
2022/01/29 13:32:52;;;;;;;111.90;51.90;;;;;;;;;;5071314;28;20454;-81
2022/01/29 13:35:28;;;;;;;118.43;53.67;;;;;;;;;;5068410;28;20064;-81
2022/01/29 13:40:44;;;;;;;126.85;56.28;;;;;;;;;;5063758;28;20033;-81
2022/01/29 13:43:39;;;;;;;126.22;56.65;;;;;;;;;;5072890;28;20424;-81
2022/01/29 13:46:21;;;;;;;111.43;52.50;;;;;;;;;;5052389;28;20052;-81
2022/01/29 13:48:56;;;;;;;111.75;47.53;;;;;;;;;;5072195;28;20032;-81
2022/01/29 13:51:34;;;;;;;118.75;51.65;;;;;;;;;;5072648;28;20039;-81
2022/01/29 13:54:01;;;;;;;101.80;47.70;;;;;;;;;;5078949;28;20028;-81
2022/01/29 13:56:53;;;;;;;105.10;46.03;;;;;;;;;;5089192;28;20063;-81
2022/01/29 13:59:20;;;;;;;99.43;46.92;;;;;;;;;;5042018;28;20487;-81
2022/01/29 14:01:47;;;;;;;88.90;41.35;;;;;;;;;;5065253;28;20029;-82
2022/01/29 14:04:32;;;;;;;88.95;41.65;;;;;;;;;;5081128;28;20045;-82
2022/01/29 14:07:00;;;;;;;96.82;43.17;;;;;;;;;;5051886;28;20507;-82
2022/01/29 14:09:38;;;;;;;99.28;44.90;;;;;;;;;;5052111;28;20552;-81
2022/01/29 14:12:09;;;;;;;92.15;41.95;;;;;;;;;;5063809;28;20067;-82
2022/01/29 14:14:41;;;;;;;97.07;43.92;;;;;;;;;;5051012;28;20037;-82
2022/01/29 14:17:08;;;;;;;105.05;48.55;;;;;;;;;;5050634;28;20048;-82
2022/01/29 14:19:49;;;;;;;124.70;55.38;;;;;;;;;;5063176;28;20047;-82
2022/01/29 14:22:15;;;;;;;109.80;50.50;;;;;;;;;;5070892;28;20043;-81
2022/01/29 14:24:52;;;;;;;117.63;51.58;;;;;;;;;;5069006;28;20044;-82
2022/01/29 14:27:19;;;;;;;112.13;50.90;;;;;;;;;;5060638;28;20391;-82
2022/01/29 14:29:51;;;;;;;112.70;52.78;;;;;;;;;;5050996;28;20430;-81
2022/01/29 14:32:18;;;;;;;115.80;50.85;;;;;;;;;;5066836;28;20036;-82
2022/01/29 14:34:45;;;;;;;96.80;44.08;;;;;;;;;;5070360;28;20037;-82
2022/01/29 14:37:12;;;;;;;121.65;51.97;;;;;;;;;;5050482;28;20120;-82
2022/01/29 14:39:41;;;;;;;118.07;51.65;;;;;;;;;;5050952;28;20051;-82
2022/01/29 14:42:08;;;;;;;130.57;53.50;;;;;;;;;;5056719;28;20036;-81
2022/01/29 14:44:42;;;;;;;118.75;54.08;;;;;;;;;;5053502;28;20122;-82
2022/01/29 14:47:08;;;;;;;117.68;51.45;;;;;;;;;;5054380;28;20036;-83
2022/01/29 14:49:37;;;;;;;124.00;52.97;;;;;;;;;;5056063;28;20036;-83
2022/01/29 14:52:07;;;;;;;127.60;54.95;;;;;;;;;;5053323;28;20411;-82
2022/01/29 14:54:57;;;;;;;139.40;58.10;;;;;;;;;;5072831;28;20466;-82
2022/01/29 14:57:23;;;;;;;134.98;60.42;;;;;;;;;;5050140;28;20765;-82